sensor_id;sensor_type;location;lat;lon;timestamp;P1;durP1;ratioP1;P2;durP2;ratioP2
51124;SDS011;37163;55.556;39.108;2023-03-23T00:01:51;5.55;;;2.13;;
51124;SDS011;37163;55.556;39.108;2023-03-23T00:04:18;3.47;;;1.75;;
51124;SDS011;37163;55.556;39.108;2023-03-23T00:06:46;3.53;;;2.00;;
51124;SDS011;37163;55.556;39.108;2023-03-23T00:09:13;6.60;;;2.67;;
51124;SDS011;37163;55.556;39.108;2023-03-23T00:11:40;4.65;;;2.13;;
51124;SDS011;37163;55.556;39.108;2023-03-23T00:14:08;5.65;;;2.35;;
51124;SDS011;37163;55.556;39.108;2023-03-23T00:16:39;4.25;;;1.80;;
51124;SDS011;37163;55.556;39.108;2023-03-23T00:19:07;3.33;;;1.77;;
51124;SDS011;37163;55.556;39.108;2023-03-23T00:21:36;2.58;;;2.05;;
51124;SDS011;37163;55.556;39.108;2023-03-23T00:26:38;3.85;;;2.10;;
51124;SDS011;37163;55.556;39.108;2023-03-23T00:29:16;6.45;;;2.13;;
51124;SDS011;37163;55.556;39.108;2023-03-23T00:31:44;3.88;;;2.03;;
51124;SDS011;37163;55.556;39.108;2023-03-23T00:34:15;4.40;;;1.95;;
51124;SDS011;37163;55.556;39.108;2023-03-23T00:36:46;4.88;;;2.40;;
51124;SDS011;37163;55.556;39.108;2023-03-23T00:39:14;3.58;;;2.00;;
51124;SDS011;37163;55.556;39.108;2023-03-23T00:41:45;4.28;;;2.17;;
51124;SDS011;37163;55.556;39.108;2023-03-23T00:44:12;3.42;;;2.42;;
51124;SDS011;37163;55.556;39.108;2023-03-23T00:46:43;4.65;;;2.47;;
51124;SDS011;37163;55.556;39.108;2023-03-23T00:49:15;4.15;;;2.60;;
51124;SDS011;37163;55.556;39.108;2023-03-23T00:51:43;5.45;;;2.80;;
51124;SDS011;37163;55.556;39.108;2023-03-23T00:54:12;4.97;;;2.65;;
51124;SDS011;37163;55.556;39.108;2023-03-23T00:56:38;5.38;;;2.63;;
51124;SDS011;37163;55.556;39.108;2023-03-23T00:59:05;6.03;;;2.75;;
51124;SDS011;37163;55.556;39.108;2023-03-23T01:01:31;5.45;;;2.67;;
51124;SDS011;37163;55.556;39.108;2023-03-23T01:03:59;3.80;;;1.90;;
51124;SDS011;37163;55.556;39.108;2023-03-23T01:06:30;5.68;;;2.47;;
51124;SDS011;37163;55.556;39.108;2023-03-23T01:09:02;4.53;;;2.08;;
51124;SDS011;37163;55.556;39.108;2023-03-23T01:11:28;7.05;;;3.05;;
51124;SDS011;37163;55.556;39.108;2023-03-23T01:13:55;5.63;;;2.70;;
51124;SDS011;37163;55.556;39.108;2023-03-23T01:16:21;4.10;;;2.42;;
51124;SDS011;37163;55.556;39.108;2023-03-23T01:18:48;4.95;;;2.75;;
51124;SDS011;37163;55.556;39.108;2023-03-23T01:21:15;4.32;;;2.20;;
51124;SDS011;37163;55.556;39.108;2023-03-23T01:23:43;10.13;;;2.20;;
51124;SDS011;37163;55.556;39.108;2023-03-23T01:26:11;5.20;;;2.80;;
51124;SDS011;37163;55.556;39.108;2023-03-23T01:28:39;4.70;;;2.47;;
51124;SDS011;37163;55.556;39.108;2023-03-23T01:31:07;6.55;;;2.67;;
51124;SDS011;37163;55.556;39.108;2023-03-23T01:33:36;4.70;;;2.35;;
51124;SDS011;37163;55.556;39.108;2023-03-23T01:36:03;5.93;;;2.28;;
51124;SDS011;37163;55.556;39.108;2023-03-23T01:38:32;4.25;;;2.72;;
51124;SDS011;37163;55.556;39.108;2023-03-23T01:40:59;5.10;;;2.30;;
51124;SDS011;37163;55.556;39.108;2023-03-23T01:43:25;3.90;;;2.28;;
51124;SDS011;37163;55.556;39.108;2023-03-23T01:45:52;4.32;;;2.40;;
51124;SDS011;37163;55.556;39.108;2023-03-23T01:48:23;5.60;;;2.75;;
51124;SDS011;37163;55.556;39.108;2023-03-23T01:53:25;4.30;;;1.98;;
51124;SDS011;37163;55.556;39.108;2023-03-23T01:55:55;4.00;;;2.10;;
51124;SDS011;37163;55.556;39.108;2023-03-23T01:58:27;5.20;;;2.45;;
51124;SDS011;37163;55.556;39.108;2023-03-23T02:00:55;6.28;;;3.35;;
51124;SDS011;37163;55.556;39.108;2023-03-23T02:03:25;4.85;;;2.63;;
51124;SDS011;37163;55.556;39.108;2023-03-23T02:05:53;4.78;;;2.50;;
51124;SDS011;37163;55.556;39.108;2023-03-23T02:08:33;6.00;;;3.17;;
51124;SDS011;37163;55.556;39.108;2023-03-23T02:11:01;6.38;;;3.03;;
51124;SDS011;37163;55.556;39.108;2023-03-23T02:13:29;5.30;;;2.63;;
51124;SDS011;37163;55.556;39.108;2023-03-23T02:16:03;5.40;;;2.40;;
51124;SDS011;37163;55.556;39.108;2023-03-23T02:21:47;5.50;;;2.55;;
51124;SDS011;37163;55.556;39.108;2023-03-23T02:35:41;5.93;;;3.10;;
51124;SDS011;37163;55.556;39.108;2023-03-23T02:38:15;5.50;;;2.70;;
51124;SDS011;37163;55.556;39.108;2023-03-23T02:40:45;4.78;;;2.70;;
51124;SDS011;37163;55.556;39.108;2023-03-23T02:43:14;5.22;;;3.05;;
51124;SDS011;37163;55.556;39.108;2023-03-23T02:45:43;5.30;;;2.72;;
51124;SDS011;37163;55.556;39.108;2023-03-23T02:48:11;7.43;;;3.47;;
51124;SDS011;37163;55.556;39.108;2023-03-23T02:50:40;6.43;;;3.42;;
51124;SDS011;37163;55.556;39.108;2023-03-23T02:53:09;6.03;;;2.83;;
51124;SDS011;37163;55.556;39.108;2023-03-23T02:55:38;7.45;;;3.53;;
51124;SDS011;37163;55.556;39.108;2023-03-23T02:58:11;6.45;;;3.40;;
51124;SDS011;37163;55.556;39.108;2023-03-23T03:00:40;5.45;;;3.10;;
51124;SDS011;37163;55.556;39.108;2023-03-23T03:03:08;8.77;;;4.13;;
51124;SDS011;37163;55.556;39.108;2023-03-23T03:05:40;7.00;;;4.00;;
51124;SDS011;37163;55.556;39.108;2023-03-23T03:08:29;7.53;;;4.20;;
51124;SDS011;37163;55.556;39.108;2023-03-23T03:16:05;8.43;;;6.00;;
51124;SDS011;37163;55.556;39.108;2023-03-23T03:21:25;12.23;;;7.72;;
51124;SDS011;37163;55.556;39.108;2023-03-23T03:23:56;11.77;;;6.10;;
51124;SDS011;37163;55.556;39.108;2023-03-23T03:26:29;10.85;;;6.55;;
51124;SDS011;37163;55.556;39.108;2023-03-23T03:29:05;14.00;;;7.50;;
51124;SDS011;37163;55.556;39.108;2023-03-23T03:31:39;12.45;;;7.13;;
51124;SDS011;37163;55.556;39.108;2023-03-23T03:34:12;11.27;;;6.40;;
51124;SDS011;37163;55.556;39.108;2023-03-23T03:36:46;11.00;;;6.88;;
51124;SDS011;37163;55.556;39.108;2023-03-23T03:39:15;11.60;;;6.90;;
51124;SDS011;37163;55.556;39.108;2023-03-23T03:41:43;12.32;;;6.85;;
51124;SDS011;37163;55.556;39.108;2023-03-23T03:44:10;11.27;;;6.35;;
51124;SDS011;37163;55.556;39.108;2023-03-23T03:46:36;11.65;;;7.15;;
51124;SDS011;37163;55.556;39.108;2023-03-23T03:49:04;12.18;;;7.30;;
51124;SDS011;37163;55.556;39.108;2023-03-23T03:51:34;10.48;;;6.65;;
51124;SDS011;37163;55.556;39.108;2023-03-23T03:54:03;10.15;;;6.22;;
51124;SDS011;37163;55.556;39.108;2023-03-23T03:56:29;9.48;;;6.85;;
51124;SDS011;37163;55.556;39.108;2023-03-23T03:59:13;11.32;;;7.18;;
51124;SDS011;37163;55.556;39.108;2023-03-23T04:01:52;11.10;;;6.57;;
51124;SDS011;37163;55.556;39.108;2023-03-23T04:04:21;10.25;;;6.70;;
51124;SDS011;37163;55.556;39.108;2023-03-23T04:06:48;10.45;;;6.18;;
51124;SDS011;37163;55.556;39.108;2023-03-23T04:09:15;9.52;;;5.65;;
51124;SDS011;37163;55.556;39.108;2023-03-23T04:11:42;12.75;;;6.47;;
51124;SDS011;37163;55.556;39.108;2023-03-23T04:14:46;10.18;;;5.65;;
51124;SDS011;37163;55.556;39.108;2023-03-23T04:17:12;8.43;;;5.05;;
51124;SDS011;37163;55.556;39.108;2023-03-23T04:19:41;8.60;;;5.40;;
51124;SDS011;37163;55.556;39.108;2023-03-23T04:22:07;9.15;;;5.82;;
51124;SDS011;37163;55.556;39.108;2023-03-23T04:24:36;9.10;;;5.10;;
51124;SDS011;37163;55.556;39.108;2023-03-23T04:27:06;9.32;;;5.25;;
51124;SDS011;37163;55.556;39.108;2023-03-23T04:29:33;8.25;;;4.55;;
51124;SDS011;37163;55.556;39.108;2023-03-23T04:32:23;9.68;;;4.45;;
51124;SDS011;37163;55.556;39.108;2023-03-23T04:34:55;10.63;;;4.72;;
51124;SDS011;37163;55.556;39.108;2023-03-23T04:37:28;8.90;;;4.63;;
51124;SDS011;37163;55.556;39.108;2023-03-23T04:39:56;8.05;;;4.82;;
51124;SDS011;37163;55.556;39.108;2023-03-23T04:42:33;11.98;;;5.70;;
51124;SDS011;37163;55.556;39.108;2023-03-23T04:45:28;8.77;;;5.32;;
51124;SDS011;37163;55.556;39.108;2023-03-23T04:47:58;12.20;;;5.97;;
51124;SDS011;37163;55.556;39.108;2023-03-23T04:50:44;11.07;;;7.50;;
51124;SDS011;37163;55.556;39.108;2023-03-23T04:53:19;15.27;;;9.35;;
51124;SDS011;37163;55.556;39.108;2023-03-23T04:55:46;14.40;;;7.57;;
51124;SDS011;37163;55.556;39.108;2023-03-23T04:58:15;15.07;;;9.77;;
51124;SDS011;37163;55.556;39.108;2023-03-23T05:01:06;16.90;;;9.55;;
51124;SDS011;37163;55.556;39.108;2023-03-23T05:03:39;12.38;;;7.80;;
51124;SDS011;37163;55.556;39.108;2023-03-23T05:06:07;12.70;;;7.60;;
51124;SDS011;37163;55.556;39.108;2023-03-23T05:08:34;11.90;;;7.93;;
51124;SDS011;37163;55.556;39.108;2023-03-23T05:11:05;10.05;;;6.88;;
51124;SDS011;37163;55.556;39.108;2023-03-23T05:13:35;12.38;;;6.50;;
51124;SDS011;37163;55.556;39.108;2023-03-23T05:16:04;9.82;;;5.72;;
51124;SDS011;37163;55.556;39.108;2023-03-23T05:18:33;10.98;;;6.45;;
51124;SDS011;37163;55.556;39.108;2023-03-23T05:21:03;9.45;;;6.80;;
51124;SDS011;37163;55.556;39.108;2023-03-23T05:23:34;9.48;;;5.82;;
51124;SDS011;37163;55.556;39.108;2023-03-23T05:26:11;9.45;;;5.88;;
51124;SDS011;37163;55.556;39.108;2023-03-23T05:28:37;9.05;;;5.13;;
51124;SDS011;37163;55.556;39.108;2023-03-23T05:31:09;8.02;;;4.65;;
51124;SDS011;37163;55.556;39.108;2023-03-23T05:33:36;9.45;;;5.30;;
51124;SDS011;37163;55.556;39.108;2023-03-23T05:36:23;8.80;;;5.28;;
51124;SDS011;37163;55.556;39.108;2023-03-23T05:39:11;7.78;;;5.43;;
51124;SDS011;37163;55.556;39.108;2023-03-23T05:41:57;10.57;;;4.97;;
51124;SDS011;37163;55.556;39.108;2023-03-23T05:44:31;12.55;;;5.85;;
51124;SDS011;37163;55.556;39.108;2023-03-23T05:46:59;8.98;;;5.00;;
51124;SDS011;37163;55.556;39.108;2023-03-23T05:49:26;9.02;;;5.20;;
51124;SDS011;37163;55.556;39.108;2023-03-23T05:51:53;9.15;;;4.18;;
51124;SDS011;37163;55.556;39.108;2023-03-23T05:54:20;9.98;;;4.78;;
51124;SDS011;37163;55.556;39.108;2023-03-23T05:56:48;8.75;;;4.93;;
51124;SDS011;37163;55.556;39.108;2023-03-23T05:59:33;8.05;;;4.35;;
51124;SDS011;37163;55.556;39.108;2023-03-23T06:02:01;10.02;;;4.93;;
51124;SDS011;37163;55.556;39.108;2023-03-23T06:04:28;9.10;;;5.78;;
51124;SDS011;37163;55.556;39.108;2023-03-23T06:07:09;8.38;;;5.10;;
51124;SDS011;37163;55.556;39.108;2023-03-23T06:09:46;11.80;;;5.20;;
51124;SDS011;37163;55.556;39.108;2023-03-23T06:12:22;10.20;;;5.22;;
51124;SDS011;37163;55.556;39.108;2023-03-23T06:15:05;11.02;;;4.95;;
51124;SDS011;37163;55.556;39.108;2023-03-23T06:18:02;9.15;;;5.03;;
51124;SDS011;37163;55.556;39.108;2023-03-23T06:20:58;11.98;;;5.72;;
51124;SDS011;37163;55.556;39.108;2023-03-23T06:23:41;9.70;;;5.47;;
51124;SDS011;37163;55.556;39.108;2023-03-23T06:26:09;9.43;;;5.40;;
51124;SDS011;37163;55.556;39.108;2023-03-23T06:28:39;7.53;;;5.10;;
51124;SDS011;37163;55.556;39.108;2023-03-23T06:31:06;13.55;;;6.38;;
51124;SDS011;37163;55.556;39.108;2023-03-23T06:33:34;9.45;;;5.35;;
51124;SDS011;37163;55.556;39.108;2023-03-23T06:36:20;10.32;;;5.57;;
51124;SDS011;37163;55.556;39.108;2023-03-23T06:38:53;9.57;;;5.22;;
51124;SDS011;37163;55.556;39.108;2023-03-23T06:41:27;11.07;;;6.15;;
51124;SDS011;37163;55.556;39.108;2023-03-23T06:43:53;10.68;;;6.13;;
51124;SDS011;37163;55.556;39.108;2023-03-23T06:46:26;12.45;;;5.90;;
51124;SDS011;37163;55.556;39.108;2023-03-23T06:49:15;10.98;;;6.15;;
51124;SDS011;37163;55.556;39.108;2023-03-23T06:51:49;10.05;;;6.65;;
51124;SDS011;37163;55.556;39.108;2023-03-23T06:54:16;12.50;;;6.20;;
51124;SDS011;37163;55.556;39.108;2023-03-23T06:56:44;11.50;;;6.28;;
51124;SDS011;37163;55.556;39.108;2023-03-23T06:59:10;11.90;;;5.93;;
51124;SDS011;37163;55.556;39.108;2023-03-23T07:01:38;11.60;;;6.45;;
51124;SDS011;37163;55.556;39.108;2023-03-23T07:04:04;11.50;;;6.45;;
51124;SDS011;37163;55.556;39.108;2023-03-23T07:06:51;11.00;;;6.82;;
51124;SDS011;37163;55.556;39.108;2023-03-23T07:09:17;13.07;;;6.57;;
51124;SDS011;37163;55.556;39.108;2023-03-23T07:11:44;10.15;;;6.18;;
51124;SDS011;37163;55.556;39.108;2023-03-23T07:14:23;12.32;;;7.10;;
51124;SDS011;37163;55.556;39.108;2023-03-23T07:16:50;9.30;;;5.88;;
51124;SDS011;37163;55.556;39.108;2023-03-23T07:19:17;11.65;;;7.10;;
51124;SDS011;37163;55.556;39.108;2023-03-23T07:21:43;9.20;;;5.93;;
51124;SDS011;37163;55.556;39.108;2023-03-23T07:24:13;8.50;;;5.78;;
51124;SDS011;37163;55.556;39.108;2023-03-23T07:26:57;10.73;;;6.65;;
51124;SDS011;37163;55.556;39.108;2023-03-23T07:29:24;10.20;;;5.97;;
51124;SDS011;37163;55.556;39.108;2023-03-23T07:32:01;9.82;;;6.75;;
51124;SDS011;37163;55.556;39.108;2023-03-23T07:34:27;10.77;;;5.70;;
51124;SDS011;37163;55.556;39.108;2023-03-23T07:37:04;13.98;;;6.07;;
51124;SDS011;37163;55.556;39.108;2023-03-23T07:39:34;7.65;;;5.55;;
51124;SDS011;37163;55.556;39.108;2023-03-23T07:42:01;12.07;;;6.20;;
51124;SDS011;37163;55.556;39.108;2023-03-23T07:44:40;8.60;;;5.80;;
51124;SDS011;37163;55.556;39.108;2023-03-23T07:47:10;10.32;;;6.38;;
51124;SDS011;37163;55.556;39.108;2023-03-23T07:49:36;8.98;;;5.63;;
51124;SDS011;37163;55.556;39.108;2023-03-23T07:52:19;8.93;;;5.43;;
51124;SDS011;37163;55.556;39.108;2023-03-23T07:54:47;8.95;;;5.18;;
51124;SDS011;37163;55.556;39.108;2023-03-23T07:57:22;9.05;;;5.50;;
51124;SDS011;37163;55.556;39.108;2023-03-23T07:59:51;10.10;;;6.32;;
51124;SDS011;37163;55.556;39.108;2023-03-23T08:02:18;10.35;;;5.90;;
51124;SDS011;37163;55.556;39.108;2023-03-23T08:04:47;9.52;;;5.53;;
51124;SDS011;37163;55.556;39.108;2023-03-23T08:07:23;7.75;;;5.57;;
51124;SDS011;37163;55.556;39.108;2023-03-23T08:10:14;7.20;;;4.93;;
51124;SDS011;37163;55.556;39.108;2023-03-23T08:13:19;10.75;;;5.55;;
51124;SDS011;37163;55.556;39.108;2023-03-23T08:15:59;8.30;;;5.47;;
51124;SDS011;37163;55.556;39.108;2023-03-23T08:18:47;7.63;;;4.70;;
51124;SDS011;37163;55.556;39.108;2023-03-23T08:21:43;8.73;;;5.60;;
51124;SDS011;37163;55.556;39.108;2023-03-23T08:24:29;12.20;;;5.50;;
51124;SDS011;37163;55.556;39.108;2023-03-23T08:27:24;8.68;;;5.55;;
51124;SDS011;37163;55.556;39.108;2023-03-23T08:30:17;9.00;;;5.03;;
51124;SDS011;37163;55.556;39.108;2023-03-23T08:33:16;9.02;;;5.35;;
51124;SDS011;37163;55.556;39.108;2023-03-23T08:35:59;9.90;;;5.22;;
51124;SDS011;37163;55.556;39.108;2023-03-23T08:38:47;9.40;;;5.35;;
51124;SDS011;37163;55.556;39.108;2023-03-23T08:41:40;8.85;;;5.80;;
51124;SDS011;37163;55.556;39.108;2023-03-23T08:44:30;9.35;;;5.18;;
51124;SDS011;37163;55.556;39.108;2023-03-23T08:47:17;8.57;;;4.93;;
51124;SDS011;37163;55.556;39.108;2023-03-23T08:50:05;8.00;;;4.93;;
51124;SDS011;37163;55.556;39.108;2023-03-23T08:52:55;6.35;;;4.20;;
51124;SDS011;37163;55.556;39.108;2023-03-23T08:55:42;6.43;;;4.45;;
51124;SDS011;37163;55.556;39.108;2023-03-23T08:58:22;6.63;;;4.28;;
51124;SDS011;37163;55.556;39.108;2023-03-23T09:01:05;6.88;;;4.10;;
51124;SDS011;37163;55.556;39.108;2023-03-23T09:03:55;6.70;;;4.30;;
51124;SDS011;37163;55.556;39.108;2023-03-23T09:06:43;8.18;;;4.63;;
51124;SDS011;37163;55.556;39.108;2023-03-23T09:09:10;9.00;;;4.53;;
51124;SDS011;37163;55.556;39.108;2023-03-23T09:11:36;9.27;;;4.57;;
51124;SDS011;37163;55.556;39.108;2023-03-23T09:14:04;6.10;;;3.95;;
51124;SDS011;37163;55.556;39.108;2023-03-23T09:16:32;8.27;;;4.30;;
51124;SDS011;37163;55.556;39.108;2023-03-23T09:18:59;7.50;;;4.43;;
51124;SDS011;37163;55.556;39.108;2023-03-23T09:21:26;8.75;;;4.55;;
51124;SDS011;37163;55.556;39.108;2023-03-23T09:23:53;8.95;;;4.50;;
51124;SDS011;37163;55.556;39.108;2023-03-23T09:26:24;7.95;;;4.32;;
51124;SDS011;37163;55.556;39.108;2023-03-23T09:28:51;8.18;;;4.80;;
51124;SDS011;37163;55.556;39.108;2023-03-23T09:31:18;8.85;;;5.03;;
51124;SDS011;37163;55.556;39.108;2023-03-23T09:33:49;9.35;;;5.72;;
51124;SDS011;37163;55.556;39.108;2023-03-23T09:36:21;15.10;;;6.68;;
51124;SDS011;37163;55.556;39.108;2023-03-23T09:38:48;9.00;;;5.97;;
51124;SDS011;37163;55.556;39.108;2023-03-23T09:46:50;11.02;;;6.30;;
51124;SDS011;37163;55.556;39.108;2023-03-23T09:49:26;11.82;;;6.38;;
51124;SDS011;37163;55.556;39.108;2023-03-23T09:51:56;10.50;;;6.47;;
51124;SDS011;37163;55.556;39.108;2023-03-23T09:54:34;9.45;;;6.05;;
51124;SDS011;37163;55.556;39.108;2023-03-23T09:57:03;10.32;;;6.18;;
51124;SDS011;37163;55.556;39.108;2023-03-23T10:02:12;9.98;;;6.68;;
51124;SDS011;37163;55.556;39.108;2023-03-23T10:05:44;9.98;;;6.10;;
51124;SDS011;37163;55.556;39.108;2023-03-23T10:07:53;10.63;;;6.15;;
51124;SDS011;37163;55.556;39.108;2023-03-23T10:10:20;9.05;;;5.60;;
51124;SDS011;37163;55.556;39.108;2023-03-23T10:12:56;9.80;;;6.25;;
51124;SDS011;37163;55.556;39.108;2023-03-23T10:15:38;9.43;;;6.53;;
51124;SDS011;37163;55.556;39.108;2023-03-23T10:20:48;9.23;;;5.88;;
51124;SDS011;37163;55.556;39.108;2023-03-23T10:25:52;8.98;;;5.95;;
51124;SDS011;37163;55.556;39.108;2023-03-23T10:28:43;11.18;;;6.57;;
51124;SDS011;37163;55.556;39.108;2023-03-23T10:31:12;7.90;;;5.60;;
51124;SDS011;37163;55.556;39.108;2023-03-23T10:33:45;10.20;;;6.10;;
51124;SDS011;37163;55.556;39.108;2023-03-23T10:36:35;9.07;;;5.68;;
51124;SDS011;37163;55.556;39.108;2023-03-23T10:39:11;10.65;;;6.93;;
51124;SDS011;37163;55.556;39.108;2023-03-23T10:41:40;8.75;;;5.70;;
51124;SDS011;37163;55.556;39.108;2023-03-23T10:44:11;9.60;;;5.97;;
51124;SDS011;37163;55.556;39.108;2023-03-23T10:49:24;8.68;;;5.63;;
51124;SDS011;37163;55.556;39.108;2023-03-23T10:51:59;9.73;;;5.60;;
51124;SDS011;37163;55.556;39.108;2023-03-23T10:57:31;9.02;;;5.95;;
51124;SDS011;37163;55.556;39.108;2023-03-23T11:00:00;9.30;;;6.25;;
51124;SDS011;37163;55.556;39.108;2023-03-23T11:02:37;10.02;;;6.05;;
51124;SDS011;37163;55.556;39.108;2023-03-23T11:05:07;10.52;;;6.30;;
51124;SDS011;37163;55.556;39.108;2023-03-23T11:07:49;8.50;;;5.63;;
51124;SDS011;37163;55.556;39.108;2023-03-23T11:10:22;10.10;;;5.47;;
51124;SDS011;37163;55.556;39.108;2023-03-23T11:12:49;9.02;;;6.03;;
51124;SDS011;37163;55.556;39.108;2023-03-23T11:15:29;8.88;;;5.80;;
51124;SDS011;37163;55.556;39.108;2023-03-23T11:18:03;7.47;;;5.50;;
51124;SDS011;37163;55.556;39.108;2023-03-23T11:20:33;9.63;;;5.85;;
51124;SDS011;37163;55.556;39.108;2023-03-23T11:23:07;9.55;;;6.15;;
51124;SDS011;37163;55.556;39.108;2023-03-23T11:25:53;8.90;;;5.90;;
51124;SDS011;37163;55.556;39.108;2023-03-23T11:28:25;9.45;;;5.80;;
51124;SDS011;37163;55.556;39.108;2023-03-23T11:30:57;9.95;;;6.03;;
51124;SDS011;37163;55.556;39.108;2023-03-23T11:33:30;10.15;;;5.90;;
51124;SDS011;37163;55.556;39.108;2023-03-23T11:36:01;10.55;;;7.22;;
51124;SDS011;37163;55.556;39.108;2023-03-23T11:38:27;8.70;;;6.13;;
51124;SDS011;37163;55.556;39.108;2023-03-23T11:41:01;10.25;;;6.63;;
51124;SDS011;37163;55.556;39.108;2023-03-23T11:43:38;9.27;;;6.10;;
51124;SDS011;37163;55.556;39.108;2023-03-23T11:51:31;10.63;;;6.65;;
51124;SDS011;37163;55.556;39.108;2023-03-23T11:56:51;10.50;;;7.22;;
51124;SDS011;37163;55.556;39.108;2023-03-23T11:59:28;9.95;;;6.25;;
51124;SDS011;37163;55.556;39.108;2023-03-23T12:07:51;8.40;;;5.45;;
51124;SDS011;37163;55.556;39.108;2023-03-23T12:10:45;8.55;;;5.57;;
51124;SDS011;37163;55.556;39.108;2023-03-23T12:16:00;9.07;;;5.07;;
51124;SDS011;37163;55.556;39.108;2023-03-23T12:25:23;8.23;;;5.00;;
51124;SDS011;37163;55.556;39.108;2023-03-23T12:43:52;7.97;;;5.60;;
51124;SDS011;37163;55.556;39.108;2023-03-23T12:46:30;10.10;;;6.13;;
51124;SDS011;37163;55.556;39.108;2023-03-23T12:51:42;8.63;;;6.20;;
51124;SDS011;37163;55.556;39.108;2023-03-23T12:54:36;11.23;;;6.53;;
51124;SDS011;37163;55.556;39.108;2023-03-23T12:57:15;9.68;;;5.75;;
51124;SDS011;37163;55.556;39.108;2023-03-23T13:00:12;8.02;;;5.82;;
51124;SDS011;37163;55.556;39.108;2023-03-23T13:02:45;10.65;;;5.63;;
51124;SDS011;37163;55.556;39.108;2023-03-23T13:07:55;8.45;;;4.97;;
51124;SDS011;37163;55.556;39.108;2023-03-23T13:10:32;9.20;;;5.45;;
51124;SDS011;37163;55.556;39.108;2023-03-23T13:13:10;7.25;;;5.10;;
51124;SDS011;37163;55.556;39.108;2023-03-23T13:16:01;7.47;;;5.20;;
51124;SDS011;37163;55.556;39.108;2023-03-23T13:21:11;8.15;;;5.45;;
51124;SDS011;37163;55.556;39.108;2023-03-23T13:23:50;8.00;;;5.10;;
51124;SDS011;37163;55.556;39.108;2023-03-23T13:26:25;8.25;;;4.70;;
51124;SDS011;37163;55.556;39.108;2023-03-23T13:28:56;8.88;;;5.93;;
51124;SDS011;37163;55.556;39.108;2023-03-23T13:31:34;9.07;;;5.95;;
51124;SDS011;37163;55.556;39.108;2023-03-23T13:36:56;7.82;;;5.15;;
51124;SDS011;37163;55.556;39.108;2023-03-23T13:39:27;6.68;;;4.75;;
51124;SDS011;37163;55.556;39.108;2023-03-23T13:50:43;6.00;;;3.92;;
51124;SDS011;37163;55.556;39.108;2023-03-23T13:55:20;5.85;;;3.45;;
51124;SDS011;37163;55.556;39.108;2023-03-23T14:10:55;7.18;;;5.18;;
51124;SDS011;37163;55.556;39.108;2023-03-23T14:16:04;6.53;;;4.50;;
51124;SDS011;37163;55.556;39.108;2023-03-23T14:18:40;7.47;;;3.90;;
51124;SDS011;37163;55.556;39.108;2023-03-23T14:21:13;6.20;;;4.20;;
51124;SDS011;37163;55.556;39.108;2023-03-23T14:23:42;7.78;;;4.30;;
51124;SDS011;37163;55.556;39.108;2023-03-23T14:26:12;6.35;;;4.15;;
51124;SDS011;37163;55.556;39.108;2023-03-23T14:28:44;6.45;;;4.03;;
51124;SDS011;37163;55.556;39.108;2023-03-23T14:31:16;6.50;;;3.85;;
51124;SDS011;37163;55.556;39.108;2023-03-23T14:33:45;5.57;;;3.50;;
51124;SDS011;37163;55.556;39.108;2023-03-23T14:36:14;5.80;;;3.60;;
51124;SDS011;37163;55.556;39.108;2023-03-23T14:38:46;5.95;;;3.55;;
51124;SDS011;37163;55.556;39.108;2023-03-23T14:41:13;6.75;;;3.50;;
51124;SDS011;37163;55.556;39.108;2023-03-23T14:43:40;8.18;;;3.83;;
51124;SDS011;37163;55.556;39.108;2023-03-23T14:46:07;6.35;;;3.38;;
51124;SDS011;37163;55.556;39.108;2023-03-23T14:48:36;5.57;;;3.42;;
51124;SDS011;37163;55.556;39.108;2023-03-23T14:51:04;5.35;;;2.80;;
51124;SDS011;37163;55.556;39.108;2023-03-23T14:53:39;5.05;;;3.20;;
51124;SDS011;37163;55.556;39.108;2023-03-23T14:56:10;6.93;;;2.88;;
51124;SDS011;37163;55.556;39.108;2023-03-23T14:58:44;4.68;;;2.95;;
51124;SDS011;37163;55.556;39.108;2023-03-23T15:01:17;6.28;;;3.08;;
51124;SDS011;37163;55.556;39.108;2023-03-23T15:04:28;5.85;;;2.75;;
51124;SDS011;37163;55.556;39.108;2023-03-23T15:06:52;5.43;;;2.90;;
51124;SDS011;37163;55.556;39.108;2023-03-23T15:09:22;5.47;;;2.78;;
51124;SDS011;37163;55.556;39.108;2023-03-23T15:11:56;4.43;;;2.65;;
51124;SDS011;37163;55.556;39.108;2023-03-23T15:14:32;5.47;;;2.85;;
51124;SDS011;37163;55.556;39.108;2023-03-23T15:17:03;5.03;;;2.90;;
51124;SDS011;37163;55.556;39.108;2023-03-23T15:19:36;4.70;;;2.70;;
51124;SDS011;37163;55.556;39.108;2023-03-23T15:22:05;5.15;;;2.88;;
51124;SDS011;37163;55.556;39.108;2023-03-23T15:27:24;4.00;;;2.53;;
51124;SDS011;37163;55.556;39.108;2023-03-23T15:30:00;5.30;;;2.67;;
51124;SDS011;37163;55.556;39.108;2023-03-23T15:32:40;6.03;;;3.17;;
51124;SDS011;37163;55.556;39.108;2023-03-23T15:35:12;5.00;;;2.95;;
51124;SDS011;37163;55.556;39.108;2023-03-23T15:37:51;5.38;;;3.03;;
51124;SDS011;37163;55.556;39.108;2023-03-23T15:40:23;3.75;;;2.08;;
51124;SDS011;37163;55.556;39.108;2023-03-23T15:43:48;5.10;;;3.25;;
51124;SDS011;37163;55.556;39.108;2023-03-23T15:45:59;6.28;;;3.15;;
51124;SDS011;37163;55.556;39.108;2023-03-23T15:48:46;5.10;;;3.05;;
51124;SDS011;37163;55.556;39.108;2023-03-23T15:51:21;5.03;;;2.90;;
51124;SDS011;37163;55.556;39.108;2023-03-23T15:53:50;8.52;;;4.63;;
51124;SDS011;37163;55.556;39.108;2023-03-23T15:56:16;7.68;;;4.20;;
51124;SDS011;37163;55.556;39.108;2023-03-23T15:58:46;6.28;;;3.78;;
51124;SDS011;37163;55.556;39.108;2023-03-23T16:01:20;8.15;;;4.65;;
51124;SDS011;37163;55.556;39.108;2023-03-23T16:04:10;7.80;;;3.60;;
51124;SDS011;37163;55.556;39.108;2023-03-23T16:06:39;8.52;;;4.55;;
51124;SDS011;37163;55.556;39.108;2023-03-23T16:09:06;8.70;;;4.38;;
51124;SDS011;37163;55.556;39.108;2023-03-23T16:11:35;7.30;;;4.15;;
51124;SDS011;37163;55.556;39.108;2023-03-23T16:14:02;10.65;;;5.40;;
51124;SDS011;37163;55.556;39.108;2023-03-23T16:16:48;7.05;;;4.75;;
51124;SDS011;37163;55.556;39.108;2023-03-23T16:19:17;8.40;;;4.60;;
51124;SDS011;37163;55.556;39.108;2023-03-23T16:21:46;8.60;;;4.75;;
51124;SDS011;37163;55.556;39.108;2023-03-23T16:24:12;7.78;;;4.35;;
51124;SDS011;37163;55.556;39.108;2023-03-23T16:26:38;7.47;;;4.72;;
51124;SDS011;37163;55.556;39.108;2023-03-23T16:29:12;7.95;;;4.63;;
51124;SDS011;37163;55.556;39.108;2023-03-23T16:31:41;7.55;;;4.50;;
51124;SDS011;37163;55.556;39.108;2023-03-23T16:34:07;7.72;;;4.60;;
51124;SDS011;37163;55.556;39.108;2023-03-23T16:36:34;7.15;;;4.80;;
51124;SDS011;37163;55.556;39.108;2023-03-23T16:39:02;9.52;;;5.43;;
51124;SDS011;37163;55.556;39.108;2023-03-23T16:41:28;9.23;;;4.80;;
51124;SDS011;37163;55.556;39.108;2023-03-23T16:43:55;11.00;;;5.90;;
51124;SDS011;37163;55.556;39.108;2023-03-23T16:46:21;10.55;;;5.25;;
51124;SDS011;37163;55.556;39.108;2023-03-23T16:48:48;9.23;;;4.97;;
51124;SDS011;37163;55.556;39.108;2023-03-23T16:51:14;11.38;;;6.45;;
51124;SDS011;37163;55.556;39.108;2023-03-23T16:53:41;8.00;;;4.82;;
51124;SDS011;37163;55.556;39.108;2023-03-23T16:56:07;9.60;;;4.72;;
51124;SDS011;37163;55.556;39.108;2023-03-23T16:58:33;9.90;;;5.13;;
51124;SDS011;37163;55.556;39.108;2023-03-23T17:01:00;9.80;;;5.32;;
51124;SDS011;37163;55.556;39.108;2023-03-23T17:03:27;9.52;;;5.40;;
51124;SDS011;37163;55.556;39.108;2023-03-23T17:05:53;9.63;;;5.50;;
51124;SDS011;37163;55.556;39.108;2023-03-23T17:08:20;11.45;;;6.90;;
51124;SDS011;37163;55.556;39.108;2023-03-23T17:10:47;10.30;;;5.20;;
51124;SDS011;37163;55.556;39.108;2023-03-23T17:13:13;8.65;;;5.32;;